Henderson, Nevada Weather observations

Data are for observation ending at time listed.
 Day   Time    Ave.   Ave.  Ave.  Vector   Max.   Stn.    Total    Solar   Ave.  
  of    of     Air    Rel.  Wind   Wind    Wind   Baro.  Precip.   Rad.    Soil  
Year   Day     Temp.  Hum.  Speed  Dir.    Gust   Pres.                    Temp. 
2016   (PST)    F      %     mph   deg.    mph     mb.     in.     W/m2     F   
------------------------------------------------------------------------------
 178    5:20   81.3    19    0.5   225      1.5   936.2    0.00      52    75.3
 178    5:30   81.5    20    1.0   195      2.9   936.3    0.00     119    75.5
 178    5:40   81.9    21    0.7   217      2.1   936.4    0.00     158    76.0
 178    5:50   82.9    20    0.4   171      1.3   936.6    0.00     192    76.9
 178    6:00   85.7    18    0.6    80      2.0   936.7    0.00     228    78.9
 178    6:10   87.7    17    0.6   221      2.4   936.8    0.00     263    81.7
 178    6:20   88.9    15    0.8   211      2.9   936.9    0.00     298    84.8
 178    6:30   90.6    14    0.8   190      2.3   937.0    0.00     335    87.8
 178    6:40   91.3    12    1.1   120      3.3   937.1    0.00     374    90.3
 178    6:50   90.9    12    1.9   118      3.6   937.2    0.00     412    92.4
 178    7:00   91.7    12    1.7   125      3.1   937.4    0.00     448    94.1
 178    7:10   92.3    12    2.0    87      3.9   937.5    0.00     486    95.8
 178    7:20   94.1    12    0.6    45      2.0   937.6    0.00     524    97.6
 178    7:30   95.5    11    0.4    68      1.9   937.7    0.00     557    99.4
 178    7:40   95.9    11    1.5    54      3.7   937.7    0.00     592    101.0
 178    7:50   94.5    12    2.5   306      5.3   937.8    0.00     624    102.0
 178    8:00   94.3    12    2.6   304      6.8   937.8    0.00     659    102.6
 178    8:10   94.5    12    3.1   306      5.2   937.9    0.00     691    103.2
 178    8:20   94.6    12    4.0   305      7.1   937.9    0.00     724    103.7
 178    8:30   95.2    12    3.0   315      6.1   937.9    0.00     758    104.1
 178    8:40   96.0    11    3.0   315      5.0   937.9    0.00     789    104.9
 178    8:50   96.3    12    3.1   297      8.0   937.9    0.00     820    105.7
 178    9:00   96.0    12    3.4   295      6.1   937.8    0.00     850    106.3
 178    9:10   96.6    12    2.5   285      4.5   937.8    0.00     878    106.8
 178    9:20   98.2    11    2.3   303      5.1   937.9    0.00     904    107.7
 178    9:30   98.7    11    1.8   188      5.0   937.8    0.00     930    108.5
 178    9:40   99.6    10    2.1   331      6.0   937.7    0.00     954    109.3
 178    9:50  101.3    10    1.6    69      4.7   937.6    0.00     976    110.2
 178   10:00  101.7    10    2.3   323      5.2   937.6    0.00     995    111.2
 178   10:10  101.6    10    1.6    71      4.9   937.6    0.00    1015    111.6
 178   10:20  102.6    10    3.2   320      6.4   937.5    0.00    1033    112.2
 178   10:30  101.2    10    2.5   311      7.5   937.6    0.00    1047    112.1
 178   10:40  102.8    10    2.2    32      4.8   937.5    0.00    1062    112.4
 178   10:50  103.7     9    2.0    56      5.2   937.5    0.00    1075    112.7
 178   11:00  103.9     9    2.4   307      4.7   937.3    0.00    1086    112.7
 178   11:10  104.8     9    1.9   350      5.5   937.3    0.00    1093    112.5
 178   11:20  105.5     9    1.9    29      5.7   937.2    0.00    1104    112.1
 178   11:30  105.3     9    2.0   310      6.3   937.1    0.00    1105    111.1
 178   11:40  105.9     9    3.0   337      6.7   937.0    0.00    1105    111.5
 178   11:50  105.0     9    1.8    98      6.6   936.9    0.00    1107    111.1
 178   12:00  106.1     9    2.7   322      7.0   936.8    0.00    1105    111.2
 178   12:10  106.1     9    2.8   319      7.6   936.8    0.00    1104    111.1
 178   12:20  107.6     8    2.7    17      6.9   936.6    0.00    1104    111.3
 178   12:30  106.4     8    2.2   313      6.5   936.5    0.00    1100    111.2
 178   12:40  107.5     8    2.8   295      6.6   936.3    0.00    1092    111.2
 178   12:50  107.3     8    3.1    50      8.3   936.2    0.00    1081    111.2
 178   13:00  108.3     8    3.4    86      9.6   936.1    0.00    1073    111.5
 178   13:10  109.0     8    2.5   240      8.0   935.9    0.00    1060    112.5
 178   13:20  108.5     8    3.5   292      8.0   935.9    0.00    1045    113.4
 178   13:30  108.4     8    3.2   310      6.2   935.8    0.00    1029    114.2
 178   13:40  109.1     8    3.8    85      8.8   935.7    0.00    1008    114.8
 178   13:50  109.2     7    3.0   322      7.2   935.4    0.00     987    115.3
 178   14:00  110.0     7    2.4     1      9.9   935.3    0.00     972    115.9
 178   14:10  110.6     7    3.7    35      8.9   935.1    0.00     952    116.5
 178   14:20  110.0     7    1.7    16      4.7   935.0    0.00     927    116.9
 178   14:30  110.3     6    2.6     1      7.7   934.8    0.00     901    117.3
 178   14:40  110.9     6    2.5    23      7.2   934.7    0.00     875    117.6
 178   14:50  111.2     6    3.4    74      8.2   934.6    0.00     844    117.9
 178   15:00  111.2     6    2.6    78      8.2   934.5    0.00     816    118.0
 178   15:10  110.8     6    2.6    59      8.3   934.4    0.00     784    118.0
 178   15:20  111.1     6    1.3    29      3.9   934.2    0.00     753    118.1
 178   15:30  111.4     7    3.6   329      8.3   934.2    0.00     719    118.2
 178   15:40  111.1     6    1.6   357      7.8   934.1    0.00     687    118.0
 178   15:50  112.3     6    1.5    15      4.2   934.0    0.00     650    118.1
 178   16:00  111.3     7    4.1   312      8.8   933.8    0.00     617    118.0
 178   16:10  110.8     7    2.1   357      6.0   933.7    0.00     580    117.3
 178   16:20  110.8     7    3.2   319      7.0   933.7    0.00     546    116.9
 178   16:30  109.0     7    4.1   277      6.9   933.6    0.00     509    115.9
 178   16:40  110.1     7    1.8    54      6.6   933.6    0.00     474    115.4
 178   16:50  111.0     7    1.0    69      3.2   933.5    0.00     434    115.4
 178   17:00  112.1     6    1.0   331      2.4   933.4    0.00     396    115.5
 178   17:10  112.2     6    1.2    47      3.7   933.4    0.00     361    115.5
 178   17:20  110.0     6    2.0   137      4.5   933.3    0.00     324    115.1
 178   17:30  110.1     6    1.5   165      3.7   933.3    0.00     280    114.5
 178   17:40  110.1     6    1.2   130      2.9   933.3    0.00     229    113.8
 178   17:50  109.9     7    1.3   108      2.8   933.3    0.00     186    113.0
 178   18:00  109.4     7    1.3   117      4.1   933.3    0.00     155    111.9
 178   18:10  109.6     7    1.4   210      3.6   933.4    0.00     112    110.7
 178   18:20  108.3     7    1.5   280      3.5   933.4    0.00      87    109.0
 178   18:30  108.0     7    0.2   212      1.5   933.4    0.00      69    107.2
 178   18:40  107.7     7    0.3    80      1.5   933.4    0.00      44    105.8
 178   18:50  105.5     8    0.4    67      1.6   933.3    0.00      23    104.2
 178   19:00  103.5     8    0.4    64      1.4   933.4    0.00       7    102.3
 178   19:10  101.3     9    0.2   106      2.5   933.4    0.00       7    100.2
 178   19:20   99.2    10    0.2   111      1.5   933.4    0.00       5    98.3
 178   19:30   97.9    10    0.4   150      2.5   933.5    0.00       0    96.7
 178   19:40   99.8     9    2.0   161      4.2   933.6    0.00       0    95.9
 178   19:50  100.2     9    2.8   182      4.4   933.7    0.00       0    95.3
 178   20:00  100.4     9    2.3   180      4.7   933.8    0.00       0    94.9
 178   20:10   99.9    10    2.2   207      4.0   933.9    0.00       0    94.4
 178   20:20   99.7     9    2.6   237      7.1   934.1    0.00       0    94.1
 178   20:30  101.1     8    4.4   253      8.9   934.1    0.00       0    94.6
 178   20:40  102.6     8    3.3   252      6.9   934.3    0.00       0    95.7
 178   20:50  101.3     9    2.3   246      5.8   934.4    0.00       0    95.4
 178   21:00  100.2     9    2.3   260      6.5   934.5    0.00       0    94.8
 178   21:10   99.2     9    1.7   251      2.9   934.5    0.00       0    94.2
 178   21:20   98.4    10    0.4   205      2.3   934.5    0.00       0    93.5
 178   21:30   97.6    11    1.7   207      3.3   934.5    0.00       0    92.6
 178   21:40   97.7    10    1.3   153      2.9   934.6    0.00       0    92.4
 178   21:50   97.2    10    1.7   161      5.0   934.7    0.00       0    92.0
 178   22:00   96.7    11    2.1   178      4.6   934.7    0.00       0    91.5
 178   22:10   96.3    10    2.8   193      5.0   934.7    0.00       0    91.1
 178   22:20   96.5    10    2.5   189      5.3   934.7    0.00       0    90.8
 178   22:30   96.4    10    1.1   176      3.1   934.8    0.00       0    90.7
 178   22:40   96.5    10    2.7   135      5.7   934.9    0.00       0    90.7
 178   22:50   96.6    10    2.2   168      5.4   934.9    0.00       0    90.6
 178   23:00   95.3    11    1.5   134      5.3   934.9    0.00       0    90.2
 178   23:10   94.5    11    1.9   169      6.1   934.8    0.00       0    89.7
 178   23:20   93.8    11    1.9   128      3.9   934.9    0.00       0    89.4
 178   23:30   93.6    11    1.5   142      3.7   935.0    0.00       0    89.1
 178   23:40   92.5    12    1.4   166      3.4   935.0    0.00       0    88.2
 178   23:50   93.9    12    2.8   125      5.2   935.0    0.00       0    88.0
 179    0:00   94.5    12    1.9   131      3.5   935.0    0.00       0    88.2
 179    0:10   94.0    12    1.5   121      2.5   935.0    0.00       0    88.3
 179    0:20   92.4    12    1.6   162      3.4   935.0    0.00       0    87.7
 179    0:30   91.8    12    2.6   175      6.1   935.1    0.00       0    87.2
 179    0:40   91.0    13    1.2   145      3.1   935.1    0.00       0    86.8
 179    0:50   91.1    14    1.7   146      4.3   935.0    0.00       0    86.4
 179    1:00   91.4    15    1.5   153      4.6   935.1    0.00       0    86.3
 179    1:10   90.6    17    1.8   154      7.2   935.1    0.00       0    85.9
 179    1:20   90.8    17    2.5   153      6.5   935.1    0.00       0    85.6
 179    1:30   90.2    18    3.0   176      5.6   935.1    0.00       0    85.4
 179    1:40   90.1    17    2.8   183      5.3   935.2    0.00       0    85.2
 179    1:50   89.3    17    1.7   176      4.4   935.2    0.00       0    84.8
 179    2:00   89.1    18    1.9   136      4.6   935.2    0.00       0    84.6
 179    2:10   89.4    19    2.0   149      4.6   935.2    0.00       0    84.4
 179    2:20   89.9    18    2.1   149      5.8   935.2    0.00       0    84.5
 179    2:30   90.1    18    2.1   145      5.4   935.2    0.00       0    84.6
 179    2:40   89.9    17    2.2   134      5.0   935.3    0.00       0    84.9
 179    2:50   90.1    17    2.2   132      5.0   935.4    0.00       0    84.9
 179    3:00   90.2    18    2.9   118     10.7   935.6    0.00       0    85.0
 179    3:10   89.2    20    1.7   142      3.7   935.7    0.00       0    84.7
 179    3:20   89.1    19    2.9   122      6.1   935.8    0.00       0    84.6
 179    3:30   88.3    19    1.6   148      2.9   935.8    0.00       0    84.2
 179    3:40   88.4    19    2.0   153      5.3   935.8    0.00       0    83.6
 179    3:50   88.4    19    2.2   168      6.4   936.0    0.00       0    83.6
 179    4:00   87.5    19    2.9   182      5.2   936.0    0.00       0    83.4
 179    4:10   86.7    20    1.5   158      4.3   936.1    0.00       0    83.0
 179    4:20   86.4    21    1.1   141      2.9   936.2    0.00       1    82.5
 179    4:30   86.2    21    1.7   151      4.2   936.2    0.00       7    82.2
 179    4:40   86.0    20    2.0   136      4.7   936.4    0.00       7    81.9
 179    4:50   86.4    21    2.5   184      5.6   936.5    0.00      17    82.0
 179    5:00   85.7    22    2.4   201      4.2   936.6    0.00      21    81.7
 179    5:10   85.7    22    1.0   240      2.9   936.8    0.00      30    81.5

Return to Henderson, Nevada graphs page.


Western Regional Climate Center,wrcc@dri.edu